createdAt,value
2023-05-06T00:01:18.313Z,100526.94
2023-05-06T00:04:22.182Z,100534.75
2023-05-06T00:07:25.517Z,100522.69
2023-05-06T00:10:28.636Z,100522.06
2023-05-06T00:13:32.163Z,100530.97
2023-05-06T00:16:35.582Z,100531.81
2023-05-06T00:19:39.024Z,100530.06
2023-05-06T00:22:44.685Z,100522.59
2023-05-06T00:25:47.720Z,100518.81
2023-05-06T00:28:50.736Z,100512.78
2023-05-06T00:31:54.119Z,100524.47
2023-05-06T00:34:57.176Z,100520.00
2023-05-06T00:38:15.424Z,100513.47
2023-05-06T00:41:18.909Z,100521.53
2023-05-06T00:44:22.207Z,100513.97
2023-05-06T00:47:25.528Z,100513.47
2023-05-06T00:50:29.893Z,100504.25
2023-05-06T00:53:33.769Z,100505.50
2023-05-06T00:56:37.279Z,100504.75
2023-05-06T00:59:40.883Z,100501.66
2023-05-06T01:02:47.770Z,100507.16
2023-05-06T01:06:07.864Z,100499.78
2023-05-06T01:09:26.109Z,100513.72
2023-05-06T01:12:47.906Z,100503.69
2023-05-06T01:15:55.040Z,100504.66
2023-05-06T01:19:06.237Z,100504.28
2023-05-06T01:22:11.707Z,100509.34
2023-05-06T01:25:19.474Z,100503.22
2023-05-06T01:28:22.458Z,100494.69
2023-05-06T01:31:45.638Z,100503.16
2023-05-06T01:35:13.550Z,100503.09
2023-05-06T01:38:27.451Z,100495.88
2023-05-06T01:41:34.857Z,100502.97
2023-05-06T01:44:39.566Z,100509.22
2023-05-06T01:47:42.918Z,100507.69
2023-05-06T01:50:46.080Z,100504.38
2023-05-06T01:53:49.042Z,100503.53
2023-05-06T01:56:52.334Z,100505.84
2023-05-06T01:59:55.713Z,100505.78
2023-05-06T02:03:00.572Z,100505.59
2023-05-06T02:06:04.862Z,100511.16
2023-05-06T02:09:13.044Z,100512.88
2023-05-06T02:12:20.306Z,100511.41
2023-05-06T02:15:23.454Z,100502.75
2023-05-06T02:18:26.375Z,100504.81
2023-05-06T02:21:29.598Z,100507.63
2023-05-06T02:24:33.098Z,100493.09
2023-05-06T02:27:36.338Z,100501.19
2023-05-06T02:30:39.577Z,100505.47
2023-05-06T02:33:43.470Z,100493.84
2023-05-06T02:36:47.543Z,100491.72
2023-05-06T02:39:51.833Z,100488.53
2023-05-06T02:42:55.107Z,100494.31
2023-05-06T02:45:58.147Z,100491.22
2023-05-06T02:49:02.184Z,100498.56
2023-05-06T02:52:06.074Z,100496.50
2023-05-06T02:55:09.314Z,100493.81
2023-05-06T02:58:12.348Z,100492.25
2023-05-06T03:01:16.000Z,100499.09
2023-05-06T03:04:19.795Z,100492.19
2023-05-06T03:07:22.956Z,100494.03
2023-05-06T03:10:26.412Z,100498.94
2023-05-06T03:13:30.719Z,100505.13
2023-05-06T03:16:34.120Z,100503.31
2023-05-06T03:19:37.258Z,100497.88
2023-05-06T03:22:42.565Z,100505.69
2023-05-06T03:25:46.644Z,100502.84
2023-05-06T03:28:50.566Z,100505.88
2023-05-06T03:31:57.172Z,100507.47
2023-05-06T03:35:02.259Z,100514.59
2023-05-06T03:38:05.773Z,100529.69
2023-05-06T03:41:19.082Z,100531.16
2023-05-06T03:44:22.177Z,100529.28
2023-05-06T03:47:25.449Z,100533.16
2023-05-06T03:50:28.753Z,100525.59
2023-05-06T03:53:31.887Z,100531.03
2023-05-06T03:56:36.224Z,100528.72
2023-05-06T03:59:40.369Z,100528.16
2023-05-06T04:02:43.854Z,100531.38
2023-05-06T04:05:54.512Z,100526.72
2023-05-06T04:09:01.826Z,100533.22
2023-05-06T04:12:05.723Z,100519.09
2023-05-06T04:15:10.974Z,100524.50
2023-05-06T04:18:19.182Z,100535.91
2023-05-06T04:21:31.419Z,100536.88
2023-05-06T04:24:41.771Z,100530.59
2023-05-06T04:27:47.179Z,100528.88
2023-05-06T04:30:50.382Z,100532.19
2023-05-06T04:33:55.422Z,100525.75
2023-05-06T04:37:00.919Z,100528.81
2023-05-06T04:40:13.976Z,100536.94
2023-05-06T04:43:22.003Z,100532.94
2023-05-06T04:46:29.877Z,100533.16
2023-05-06T04:49:33.589Z,100532.50
2023-05-06T04:52:37.796Z,100527.94
2023-05-06T04:55:41.959Z,100523.28
2023-05-06T04:58:45.734Z,100518.75
2023-05-06T05:01:49.241Z,100516.78
2023-05-06T05:04:52.318Z,100524.94
2023-05-06T05:07:56.660Z,100517.72
2023-05-06T05:11:02.457Z,100527.09
2023-05-06T05:14:07.026Z,100519.09
2023-05-06T05:17:10.558Z,100517.41
2023-05-06T05:20:15.570Z,100518.97
2023-05-06T05:23:19.016Z,100518.88
2023-05-06T05:26:22.079Z,100518.34
2023-05-06T05:29:28.314Z,100521.53
2023-05-06T05:32:31.907Z,100520.66
2023-05-06T05:35:35.037Z,100515.94
2023-05-06T05:38:39.249Z,100515.41
2023-05-06T05:41:42.720Z,100522.84
2023-05-06T05:44:46.364Z,100523.47
2023-05-06T05:47:49.655Z,100518.03
2023-05-06T05:50:53.996Z,100519.88
2023-05-06T05:53:57.405Z,100522.97
2023-05-06T05:57:02.644Z,100519.72
2023-05-06T06:00:07.958Z,100521.09
2023-05-06T06:03:20.149Z,100524.09
2023-05-06T06:06:24.542Z,100518.53
2023-05-06T06:09:28.505Z,100520.06
2023-05-06T06:12:32.255Z,100518.16
2023-05-06T06:15:36.260Z,100514.28
2023-05-06T06:18:39.585Z,100518.31
2023-05-06T06:21:43.121Z,100522.72
2023-05-06T06:24:46.668Z,100525.53
2023-05-06T06:27:49.948Z,100517.88
2023-05-06T06:30:53.044Z,100524.47
2023-05-06T06:33:56.204Z,100531.94
2023-05-06T06:36:59.615Z,100530.69
2023-05-06T06:40:02.819Z,100533.72
2023-05-06T06:43:05.843Z,100526.91
2023-05-06T06:46:27.785Z,100533.13
2023-05-06T06:49:31.425Z,100531.81
2023-05-06T06:52:35.650Z,100529.66
2023-05-06T06:55:41.633Z,100537.47
2023-05-06T06:58:44.879Z,100536.28
2023-05-06T07:01:48.144Z,100528.84
2023-05-06T07:04:51.288Z,100528.75
2023-05-06T07:07:55.588Z,100535.31
2023-05-06T07:10:58.829Z,100535.00
2023-05-06T07:14:02.112Z,100534.47
2023-05-06T07:17:05.381Z,100527.53
2023-05-06T07:20:09.184Z,100530.03
2023-05-06T07:23:12.382Z,100535.63
2023-05-06T07:26:15.671Z,100535.69
2023-05-06T07:29:18.904Z,100530.28
2023-05-06T07:32:22.500Z,100526.41
2023-05-06T07:35:25.909Z,100529.94
2023-05-06T07:38:29.075Z,100535.66
2023-05-06T07:41:32.319Z,100531.84
2023-05-06T07:44:37.216Z,100535.41
2023-05-06T07:47:41.133Z,100531.84
2023-05-06T07:50:44.636Z,100545.25
2023-05-06T07:53:47.909Z,100538.25
2023-05-06T07:56:53.734Z,100538.22
2023-05-06T07:59:58.666Z,100536.59
2023-05-06T08:03:01.812Z,100532.31
2023-05-06T08:06:05.670Z,100527.84
2023-05-06T08:09:09.369Z,100539.09
2023-05-06T08:12:15.910Z,100546.03
2023-05-06T08:15:19.434Z,100536.88
2023-05-06T08:18:23.485Z,100531.91
2023-05-06T08:21:26.644Z,100531.16
2023-05-06T08:24:30.130Z,100534.97
2023-05-06T08:27:33.108Z,100537.81
2023-05-06T08:30:36.969Z,100535.69
2023-05-06T08:33:40.286Z,100539.72
2023-05-06T08:36:43.598Z,100543.34
2023-05-06T08:39:46.667Z,100541.84
2023-05-06T08:42:50.753Z,100549.88
2023-05-06T08:45:54.870Z,100544.59
2023-05-06T08:48:59.209Z,100545.78
2023-05-06T08:52:05.919Z,100541.66
2023-05-06T08:55:10.414Z,100543.75
2023-05-06T08:58:15.870Z,100538.16
2023-05-06T09:01:22.359Z,100538.25
2023-05-06T09:04:26.177Z,100538.63
2023-05-06T09:07:29.412Z,100526.59
2023-05-06T09:10:38.377Z,100528.28
2023-05-06T09:13:42.436Z,100532.13
2023-05-06T09:16:48.050Z,100532.59
2023-05-06T09:19:57.141Z,100528.09
2023-05-06T09:23:01.709Z,100518.09
2023-05-06T09:26:06.246Z,100518.91
2023-05-06T09:29:09.756Z,100515.63
2023-05-06T09:32:14.886Z,100511.28
2023-05-06T09:35:18.249Z,100508.34
2023-05-06T09:38:21.973Z,100504.75
2023-05-06T09:41:25.855Z,100507.22
2023-05-06T09:44:29.441Z,100509.31
2023-05-06T09:47:36.223Z,100501.75
2023-05-06T09:50:39.768Z,100499.84
2023-05-06T09:53:44.565Z,100501.03
2023-05-06T09:56:48.389Z,100500.19
2023-05-06T09:59:55.362Z,100494.03
2023-05-06T10:02:59.472Z,100490.28
2023-05-06T10:06:05.443Z,100486.50
2023-05-06T10:09:09.797Z,100482.31
2023-05-06T10:12:14.000Z,100483.13
2023-05-06T10:15:17.340Z,100482.31
2023-05-06T10:18:22.027Z,100470.81
2023-05-06T10:21:28.042Z,100471.47
2023-05-06T10:24:37.044Z,100469.81
2023-05-06T10:27:42.050Z,100470.78
2023-05-06T10:30:46.404Z,100468.25
2023-05-06T10:33:52.902Z,100468.53
2023-05-06T10:36:59.364Z,100466.09
2023-05-06T10:40:04.920Z,100456.66
2023-05-06T10:43:31.056Z,100459.66
2023-05-06T10:46:58.778Z,100448.47
2023-05-06T10:50:21.678Z,100450.97
2023-05-06T10:54:04.751Z,100451.63
2023-05-06T10:57:09.965Z,100447.63
2023-05-06T11:00:13.635Z,100447.56
2023-05-06T11:03:19.032Z,100439.66
2023-05-06T11:06:36.872Z,100441.34
2023-05-06T11:10:05.661Z,100442.88
2023-05-06T11:13:40.956Z,100436.00
2023-05-06T11:16:48.912Z,100436.03
2023-05-06T11:20:18.208Z,100433.13
2023-05-06T11:23:21.274Z,100443.38
2023-05-06T11:26:24.701Z,100440.97
2023-05-06T11:29:27.946Z,100440.34
2023-05-06T11:32:33.259Z,100437.31
2023-05-06T11:35:40.065Z,100441.06
2023-05-06T11:38:48.204Z,100445.50
2023-05-06T11:41:53.063Z,100440.53
2023-05-06T11:45:00.672Z,100440.78
2023-05-06T11:48:04.054Z,100438.50
2023-05-06T11:51:08.329Z,100435.63
2023-05-06T11:54:12.125Z,100444.22
2023-05-06T11:57:15.832Z,100438.22
2023-05-06T12:00:20.747Z,100442.06
2023-05-06T12:03:25.194Z,100437.06
2023-05-06T12:06:36.187Z,100436.69
2023-05-06T12:09:48.299Z,100430.47
2023-05-06T12:12:51.878Z,100434.84
2023-05-06T12:15:56.240Z,100428.97
2023-05-06T12:18:59.278Z,100433.00
2023-05-06T12:22:22.612Z,100427.72
2023-05-06T12:25:25.936Z,100427.19
2023-05-06T12:28:29.624Z,100427.41
2023-05-06T12:31:33.040Z,100417.78
2023-05-06T12:34:40.336Z,100421.41
2023-05-06T12:37:43.342Z,100421.88
2023-05-06T12:40:54.271Z,100424.94
2023-05-06T12:44:00.416Z,100430.31
2023-05-06T12:47:22.306Z,100428.44
2023-05-06T12:50:36.179Z,100424.41
2023-05-06T12:53:39.855Z,100424.47
2023-05-06T12:56:45.085Z,100417.41
2023-05-06T12:59:49.391Z,100418.94
2023-05-06T13:02:55.767Z,100413.66
2023-05-06T13:05:59.417Z,100406.09
2023-05-06T13:09:02.742Z,100396.28
2023-05-06T13:12:07.477Z,100391.06
2023-05-06T13:15:10.893Z,100397.69
2023-05-06T13:18:13.800Z,100386.91
2023-05-06T13:21:17.007Z,100391.28
2023-05-06T13:24:20.006Z,100387.56
2023-05-06T13:27:23.799Z,100392.94
2023-05-06T13:30:27.070Z,100385.13
2023-05-06T13:33:30.314Z,100388.66
2023-05-06T13:36:33.169Z,100382.34
2023-05-06T13:39:36.254Z,100376.28
2023-05-06T13:42:39.754Z,100374.84
2023-05-06T13:45:44.902Z,100365.06
2023-05-06T13:48:48.208Z,100364.16
2023-05-06T13:51:51.812Z,100366.94
2023-05-06T13:54:54.896Z,100360.63
2023-05-06T13:57:58.052Z,100358.88
2023-05-06T14:01:01.365Z,100349.03
2023-05-06T14:04:05.121Z,100345.50
2023-05-06T14:07:08.416Z,100344.00
2023-05-06T14:10:12.122Z,100339.91
2023-05-06T14:13:15.264Z,100343.97
2023-05-06T14:16:18.682Z,100339.66
2023-05-06T14:19:24.321Z,100343.84
2023-05-06T14:22:30.703Z,100330.47
2023-05-06T14:25:34.144Z,100328.16
2023-05-06T14:28:37.420Z,100326.88
2023-05-06T14:31:40.607Z,100330.22
2023-05-06T14:34:43.874Z,100327.19
2023-05-06T14:37:47.227Z,100325.38
2023-05-06T14:40:53.088Z,100327.25
2023-05-06T14:43:56.111Z,100321.13
2023-05-06T14:46:58.984Z,100325.47
2023-05-06T14:50:02.053Z,100320.88
2023-05-06T14:53:05.355Z,100321.41
2023-05-06T14:56:10.621Z,100326.97
2023-05-06T14:59:14.134Z,100321.63
2023-05-06T15:02:17.288Z,100321.34
2023-05-06T15:05:20.435Z,100327.34
2023-05-06T15:08:23.877Z,100333.59
2023-05-06T15:11:27.124Z,100326.31
2023-05-06T15:14:30.278Z,100328.06
2023-05-06T15:17:33.609Z,100335.09
2023-05-06T15:20:37.137Z,100336.28
2023-05-06T15:23:40.194Z,100329.44
2023-05-06T15:26:43.497Z,100324.66
2023-05-06T15:29:46.633Z,100314.50
2023-05-06T15:32:50.110Z,100321.63
2023-05-06T15:35:53.490Z,100328.94
2023-05-06T15:38:59.887Z,100323.19
2023-05-06T15:42:04.416Z,100321.75
2023-05-06T15:45:08.222Z,100318.72
2023-05-06T15:48:11.461Z,100320.97
2023-05-06T15:51:14.898Z,100324.03
2023-05-06T15:54:21.287Z,100320.78
2023-05-06T15:57:24.577Z,100318.06
2023-05-06T16:00:28.178Z,100327.06
2023-05-06T16:03:34.028Z,100334.00
2023-05-06T16:06:37.262Z,100333.28
2023-05-06T16:09:40.454Z,100328.22
2023-05-06T16:12:43.476Z,100336.84
2023-05-06T16:15:47.427Z,100328.19
2023-05-06T16:18:50.474Z,100332.50
2023-05-06T16:21:53.491Z,100331.47
2023-05-06T16:24:57.627Z,100340.38
2023-05-06T16:28:00.955Z,100337.47
2023-05-06T16:31:03.926Z,100332.91
2023-05-06T16:34:07.059Z,100337.16
2023-05-06T16:37:10.151Z,100338.88
2023-05-06T16:40:14.447Z,100339.91
2023-05-06T16:43:19.014Z,100344.63
2023-05-06T16:46:24.295Z,100338.28
2023-05-06T16:49:28.210Z,100336.97
2023-05-06T16:52:31.307Z,100328.41
2023-05-06T16:55:34.673Z,100330.06
2023-05-06T16:58:43.021Z,100329.72
2023-05-06T17:01:45.998Z,100313.56
2023-05-06T17:04:49.390Z,100306.19
2023-05-06T17:07:52.607Z,100310.34
2023-05-06T17:10:55.691Z,100305.50
2023-05-06T17:13:58.949Z,100310.22
2023-05-06T17:17:04.322Z,100297.06
2023-05-06T17:20:08.401Z,100306.59
2023-05-06T17:23:11.942Z,100302.81
2023-05-06T17:26:17.933Z,100297.78
2023-05-06T17:29:22.358Z,100297.97
2023-05-06T17:32:26.275Z,100300.94
2023-05-06T17:35:29.596Z,100298.59
2023-05-06T17:38:32.918Z,100295.25
2023-05-06T17:41:36.591Z,100293.66
2023-05-06T17:44:42.828Z,100306.28
2023-05-06T17:47:46.050Z,100321.47
2023-05-06T17:50:49.192Z,100329.56
2023-05-06T17:53:52.318Z,100332.16
2023-05-06T17:56:55.318Z,100330.06
2023-05-06T17:59:58.409Z,100338.91
2023-05-06T18:03:01.658Z,100339.00
2023-05-06T18:06:04.779Z,100348.56
2023-05-06T18:09:08.512Z,100348.00
2023-05-06T18:12:11.491Z,100345.13
2023-05-06T18:15:14.687Z,100340.31
2023-05-06T18:18:17.861Z,100345.16
2023-05-06T18:21:21.237Z,100351.88
2023-05-06T18:24:24.061Z,100351.66
2023-05-06T18:27:27.227Z,100353.06
2023-05-06T18:30:30.577Z,100365.84
2023-05-06T18:33:33.934Z,100368.75
2023-05-06T18:36:37.091Z,100375.56
2023-05-06T18:39:41.826Z,100376.94
2023-05-06T18:42:47.697Z,100382.63
2023-05-06T18:45:52.297Z,100386.31
2023-05-06T18:48:56.171Z,100393.56
2023-05-06T18:52:05.552Z,100408.88
2023-05-06T18:55:11.297Z,100409.03
2023-05-06T18:58:16.276Z,100416.06
2023-05-06T19:01:19.154Z,100424.78
2023-05-06T19:04:22.108Z,100433.72
2023-05-06T19:07:25.088Z,100437.81
2023-05-06T19:10:28.682Z,100435.53
2023-05-06T19:13:31.863Z,100442.28
2023-05-06T19:16:37.573Z,100446.06
2023-05-06T19:19:41.216Z,100433.41
2023-05-06T19:22:44.472Z,100438.28
2023-05-06T19:25:47.925Z,100445.63
2023-05-06T19:28:50.844Z,100447.78
2023-05-06T19:31:54.608Z,100453.59
2023-05-06T19:34:57.596Z,100452.06
2023-05-06T19:38:00.507Z,100443.53
2023-05-06T19:41:04.414Z,100453.75
2023-05-06T19:44:07.494Z,100456.16
2023-05-06T19:47:10.676Z,100446.69
2023-05-06T19:50:13.962Z,100443.81
2023-05-06T19:53:17.953Z,100446.41
2023-05-06T19:56:21.044Z,100455.25
2023-05-06T19:59:24.120Z,100448.47
2023-05-06T20:02:27.493Z,100450.94
2023-05-06T20:05:31.952Z,100445.28
2023-05-06T20:08:35.484Z,100443.13
2023-05-06T20:11:38.782Z,100459.00
2023-05-06T20:14:41.970Z,100460.50
2023-05-06T20:17:45.049Z,100454.53
2023-05-06T20:20:48.104Z,100451.97
2023-05-06T20:23:51.512Z,100451.34
2023-05-06T20:26:56.127Z,100445.22
2023-05-06T20:29:59.305Z,100443.41
2023-05-06T20:33:02.245Z,100443.84
2023-05-06T20:36:06.123Z,100452.09
2023-05-06T20:39:12.957Z,100449.47
2023-05-06T20:42:15.849Z,100443.84
2023-05-06T20:45:19.083Z,100446.16
2023-05-06T20:48:22.232Z,100444.47
2023-05-06T20:51:27.742Z,100443.56
2023-05-06T20:54:30.682Z,100441.91
2023-05-06T20:57:33.760Z,100441.25
2023-05-06T21:00:37.000Z,100438.03
2023-05-06T21:03:40.342Z,100423.41
2023-05-06T21:06:43.538Z,100429.97
2023-05-06T21:09:46.939Z,100442.72
2023-05-06T21:12:50.950Z,100439.88
2023-05-06T21:15:54.144Z,100445.22
2023-05-06T21:18:57.319Z,100439.75
2023-05-06T21:22:00.629Z,100438.69
2023-05-06T21:25:07.449Z,100436.69
2023-05-06T21:28:10.597Z,100426.91
2023-05-06T21:31:13.828Z,100446.75
2023-05-06T21:34:17.002Z,100439.44
2023-05-06T21:37:20.179Z,100440.34
2023-05-06T21:40:27.267Z,100439.72
2023-05-06T21:43:31.442Z,100440.63
2023-05-06T21:46:38.135Z,100443.50
2023-05-06T21:49:41.596Z,100438.94
2023-05-06T21:52:44.644Z,100445.31
2023-05-06T21:55:48.046Z,100444.22
2023-05-06T21:58:52.705Z,100446.16
2023-05-06T22:01:56.049Z,100440.78
2023-05-06T22:04:59.453Z,100433.00
2023-05-06T22:08:02.440Z,100435.84
2023-05-06T22:11:05.406Z,100435.56
2023-05-06T22:14:09.662Z,100434.16
2023-05-06T22:17:12.610Z,100434.59
2023-05-06T22:20:15.801Z,100430.66
2023-05-06T22:23:21.920Z,100431.44
2023-05-06T22:26:26.079Z,100427.56
2023-05-06T22:29:29.120Z,100433.50
2023-05-06T22:32:34.985Z,100435.34
2023-05-06T22:35:37.913Z,100436.56
2023-05-06T22:38:43.738Z,100432.41
2023-05-06T22:41:48.570Z,100428.59
2023-05-06T22:44:51.506Z,100432.09
2023-05-06T22:47:54.538Z,100431.94
2023-05-06T22:50:58.279Z,100429.75
2023-05-06T22:54:01.541Z,100435.53
2023-05-06T22:57:04.716Z,100427.69
2023-05-06T23:00:08.939Z,100435.03
2023-05-06T23:03:12.529Z,100434.94
2023-05-06T23:06:15.765Z,100425.19
2023-05-06T23:09:18.774Z,100424.84
2023-05-06T23:12:22.145Z,100419.19
2023-05-06T23:15:25.401Z,100426.13
2023-05-06T23:18:28.799Z,100419.59
2023-05-06T23:21:32.211Z,100419.06
2023-05-06T23:24:35.022Z,100415.88
2023-05-06T23:27:39.897Z,100422.78
2023-05-06T23:30:43.086Z,100418.50
2023-05-06T23:33:46.437Z,100420.41
2023-05-06T23:36:49.403Z,100414.41
2023-05-06T23:39:53.302Z,100416.44
2023-05-06T23:42:56.523Z,100413.72
2023-05-06T23:46:00.077Z,100413.59
2023-05-06T23:49:04.171Z,100410.94
2023-05-06T23:52:08.446Z,100415.59
2023-05-06T23:55:12.371Z,100405.72
2023-05-06T23:58:15.867Z,100406.09
